sensor_id;sensor_type;location;lat;lon;timestamp;P1;durP1;ratioP1;P2;durP2;ratioP2
40304;SDS011;26010;52.418;20.728;2022-07-06T00:00:54;47.80;;;44.80;;
40304;SDS011;26010;52.418;20.728;2022-07-06T00:10:54;57.73;;;54.17;;
40304;SDS011;26010;52.418;20.728;2022-07-06T00:20:55;52.60;;;49.37;;
40304;SDS011;26010;52.418;20.728;2022-07-06T00:30:56;45.17;;;42.27;;
40304;SDS011;26010;52.418;20.728;2022-07-06T00:40:57;61.23;;;57.33;;
40304;SDS011;26010;52.418;20.728;2022-07-06T00:50:58;45.37;;;42.27;;
40304;SDS011;26010;52.418;20.728;2022-07-06T01:00:59;43.27;;;40.17;;
40304;SDS011;26010;52.418;20.728;2022-07-06T01:10:59;36.00;;;33.50;;
40304;SDS011;26010;52.418;20.728;2022-07-06T01:21:10;27.33;;;25.30;;
40304;SDS011;26010;52.418;20.728;2022-07-06T01:31:15;39.53;;;36.90;;
40304;SDS011;26010;52.418;20.728;2022-07-06T01:41:17;40.30;;;37.23;;
40304;SDS011;26010;52.418;20.728;2022-07-06T01:51:18;41.10;;;38.47;;
40304;SDS011;26010;52.418;20.728;2022-07-06T02:01:19;39.90;;;37.00;;
40304;SDS011;26010;52.418;20.728;2022-07-06T02:11:20;43.43;;;40.37;;
40304;SDS011;26010;52.418;20.728;2022-07-06T02:21:21;39.70;;;36.23;;
40304;SDS011;26010;52.418;20.728;2022-07-06T02:31:22;39.23;;;36.57;;
40304;SDS011;26010;52.418;20.728;2022-07-06T02:41:23;43.20;;;40.47;;
40304;SDS011;26010;52.418;20.728;2022-07-06T02:51:23;37.90;;;34.87;;
40304;SDS011;26010;52.418;20.728;2022-07-06T03:01:25;41.47;;;38.00;;
40304;SDS011;26010;52.418;20.728;2022-07-06T03:11:25;37.23;;;34.37;;
40304;SDS011;26010;52.418;20.728;2022-07-06T03:21:26;42.97;;;39.13;;
40304;SDS011;26010;52.418;20.728;2022-07-06T03:31:27;40.73;;;37.73;;
40304;SDS011;26010;52.418;20.728;2022-07-06T03:41:28;50.87;;;47.20;;
40304;SDS011;26010;52.418;20.728;2022-07-06T03:51:28;37.07;;;34.47;;
40304;SDS011;26010;52.418;20.728;2022-07-06T04:01:29;36.10;;;33.50;;
40304;SDS011;26010;52.418;20.728;2022-07-06T04:11:31;52.77;;;49.37;;
40304;SDS011;26010;52.418;20.728;2022-07-06T04:21:31;27.40;;;24.90;;
40304;SDS011;26010;52.418;20.728;2022-07-06T04:31:32;29.33;;;26.83;;
40304;SDS011;26010;52.418;20.728;2022-07-06T04:41:33;17.97;;;16.67;;
40304;SDS011;26010;52.418;20.728;2022-07-06T04:51:34;20.33;;;18.57;;
40304;SDS011;26010;52.418;20.728;2022-07-06T05:01:34;20.83;;;19.13;;
40304;SDS011;26010;52.418;20.728;2022-07-06T05:11:35;23.90;;;22.27;;
40304;SDS011;26010;52.418;20.728;2022-07-06T05:21:38;13.57;;;12.13;;
40304;SDS011;26010;52.418;20.728;2022-07-06T05:31:39;13.47;;;12.13;;
40304;SDS011;26010;52.418;20.728;2022-07-06T05:41:40;17.63;;;13.47;;
40304;SDS011;26010;52.418;20.728;2022-07-06T05:51:40;13.67;;;12.27;;
40304;SDS011;26010;52.418;20.728;2022-07-06T06:01:41;11.10;;;10.10;;
40304;SDS011;26010;52.418;20.728;2022-07-06T06:11:42;9.53;;;8.63;;
40304;SDS011;26010;52.418;20.728;2022-07-06T06:21:43;10.47;;;8.10;;
40304;SDS011;26010;52.418;20.728;2022-07-06T06:31:43;9.70;;;8.80;;
40304;SDS011;26010;52.418;20.728;2022-07-06T06:41:44;17.60;;;16.20;;
40304;SDS011;26010;52.418;20.728;2022-07-06T06:51:45;26.83;;;24.77;;
40304;SDS011;26010;52.418;20.728;2022-07-06T07:01:46;23.80;;;22.23;;
40304;SDS011;26010;52.418;20.728;2022-07-06T07:11:47;27.67;;;25.47;;
40304;SDS011;26010;52.418;20.728;2022-07-06T07:21:47;38.80;;;36.40;;
40304;SDS011;26010;52.418;20.728;2022-07-06T07:31:48;47.43;;;44.83;;
40304;SDS011;26010;52.418;20.728;2022-07-06T07:41:49;30.73;;;28.83;;
40304;SDS011;26010;52.418;20.728;2022-07-06T07:51:50;16.47;;;15.13;;
40304;SDS011;26010;52.418;20.728;2022-07-06T08:01:51;13.90;;;13.00;;
40304;SDS011;26010;52.418;20.728;2022-07-06T08:11:52;10.77;;;10.03;;
40304;SDS011;26010;52.418;20.728;2022-07-06T08:21:53;6.10;;;4.30;;
40304;SDS011;26010;52.418;20.728;2022-07-06T08:31:54;6.67;;;6.13;;
40304;SDS011;26010;52.418;20.728;2022-07-06T08:41:55;7.93;;;7.33;;
40304;SDS011;26010;52.418;20.728;2022-07-06T08:51:56;6.77;;;6.17;;
40304;SDS011;26010;52.418;20.728;2022-07-06T09:01:56;6.23;;;5.73;;
40304;SDS011;26010;52.418;20.728;2022-07-06T09:11:59;6.63;;;4.57;;
40304;SDS011;26010;52.418;20.728;2022-07-06T09:22:01;4.70;;;4.30;;
40304;SDS011;26010;52.418;20.728;2022-07-06T09:32:03;6.35;;;5.05;;
40304;SDS011;26010;52.418;20.728;2022-07-06T09:42:05;5.40;;;5.00;;
40304;SDS011;26010;52.418;20.728;2022-07-06T09:52:08;12.43;;;11.30;;
40304;SDS011;26010;52.418;20.728;2022-07-06T10:02:09;5.63;;;4.70;;
40304;SDS011;26010;52.418;20.728;2022-07-06T10:22:11;6.67;;;5.30;;
40304;SDS011;26010;52.418;20.728;2022-07-06T10:32:12;5.00;;;4.50;;
40304;SDS011;26010;52.418;20.728;2022-07-06T10:42:38;8.23;;;4.50;;
40304;SDS011;26010;52.418;20.728;2022-07-06T10:52:50;13.55;;;4.85;;
40304;SDS011;26010;52.418;20.728;2022-07-06T11:02:50;6.83;;;5.40;;
40304;SDS011;26010;52.418;20.728;2022-07-06T11:12:58;4.80;;;4.40;;
40304;SDS011;26010;52.418;20.728;2022-07-06T11:22:59;6.17;;;5.30;;
40304;SDS011;26010;52.418;20.728;2022-07-06T11:32:59;7.00;;;5.47;;
40304;SDS011;26010;52.418;20.728;2022-07-06T11:43:00;7.15;;;5.57;;
40304;SDS011;26010;52.418;20.728;2022-07-06T11:53:01;5.20;;;4.67;;
40304;SDS011;26010;52.418;20.728;2022-07-06T12:03:02;6.95;;;3.70;;
40304;SDS011;26010;52.418;20.728;2022-07-06T12:13:03;7.27;;;4.27;;
40304;SDS011;26010;52.418;20.728;2022-07-06T12:23:05;6.23;;;4.50;;
40304;SDS011;26010;52.418;20.728;2022-07-06T12:33:15;5.70;;;5.20;;
40304;SDS011;26010;52.418;20.728;2022-07-06T12:43:35;4.90;;;4.40;;
40304;SDS011;26010;52.418;20.728;2022-07-06T12:53:36;4.17;;;3.80;;
40304;SDS011;26010;52.418;20.728;2022-07-06T13:03:37;4.60;;;3.30;;
40304;SDS011;26010;52.418;20.728;2022-07-06T13:13:43;6.23;;;3.50;;
40304;SDS011;26010;52.418;20.728;2022-07-06T13:23:44;6.83;;;4.57;;
40304;SDS011;26010;52.418;20.728;2022-07-06T13:43:45;7.07;;;5.03;;
40304;SDS011;26010;52.418;20.728;2022-07-06T13:53:46;7.13;;;6.60;;
40304;SDS011;26010;52.418;20.728;2022-07-06T14:03:47;8.48;;;7.07;;
40304;SDS011;26010;52.418;20.728;2022-07-06T14:13:48;8.17;;;7.57;;
40304;SDS011;26010;52.418;20.728;2022-07-06T14:23:49;7.93;;;7.13;;
40304;SDS011;26010;52.418;20.728;2022-07-06T14:33:50;6.70;;;6.30;;
40304;SDS011;26010;52.418;20.728;2022-07-06T14:43:50;6.07;;;5.67;;
40304;SDS011;26010;52.418;20.728;2022-07-06T14:53:51;32.40;;;30.27;;
40304;SDS011;26010;52.418;20.728;2022-07-06T15:03:52;16.03;;;15.03;;
40304;SDS011;26010;52.418;20.728;2022-07-06T15:13:53;30.47;;;28.77;;
40304;SDS011;26010;52.418;20.728;2022-07-06T15:23:53;45.47;;;42.87;;
40304;SDS011;26010;52.418;20.728;2022-07-06T15:33:54;41.03;;;38.70;;
40304;SDS011;26010;52.418;20.728;2022-07-06T15:43:55;37.53;;;35.20;;
40304;SDS011;26010;52.418;20.728;2022-07-06T15:53:56;31.80;;;29.70;;
40304;SDS011;26010;52.418;20.728;2022-07-06T16:03:57;28.57;;;26.07;;
40304;SDS011;26010;52.418;20.728;2022-07-06T16:13:57;30.40;;;28.40;;
40304;SDS011;26010;52.418;20.728;2022-07-06T16:23:58;28.73;;;26.83;;
40304;SDS011;26010;52.418;20.728;2022-07-06T16:33:59;26.63;;;24.63;;
40304;SDS011;26010;52.418;20.728;2022-07-06T16:44:00;27.83;;;26.00;;
40304;SDS011;26010;52.418;20.728;2022-07-06T16:54:01;25.43;;;23.53;;
40304;SDS011;26010;52.418;20.728;2022-07-06T17:04:01;21.37;;;20.07;;
40304;SDS011;26010;52.418;20.728;2022-07-06T17:14:02;22.70;;;21.30;;
40304;SDS011;26010;52.418;20.728;2022-07-06T17:24:03;22.53;;;20.93;;
40304;SDS011;26010;52.418;20.728;2022-07-06T17:34:04;25.80;;;23.93;;
40304;SDS011;26010;52.418;20.728;2022-07-06T17:44:07;31.10;;;29.20;;
40304;SDS011;26010;52.418;20.728;2022-07-06T17:54:07;31.33;;;29.33;;
40304;SDS011;26010;52.418;20.728;2022-07-06T18:04:08;23.80;;;21.83;;
40304;SDS011;26010;52.418;20.728;2022-07-06T18:14:09;23.87;;;21.97;;
40304;SDS011;26010;52.418;20.728;2022-07-06T18:24:10;19.90;;;18.60;;
40304;SDS011;26010;52.418;20.728;2022-07-06T18:34:11;18.07;;;16.83;;
40304;SDS011;26010;52.418;20.728;2022-07-06T18:44:12;20.63;;;19.33;;
40304;SDS011;26010;52.418;20.728;2022-07-06T18:54:12;34.07;;;30.63;;
40304;SDS011;26010;52.418;20.728;2022-07-06T19:04:13;36.83;;;34.23;;
40304;SDS011;26010;52.418;20.728;2022-07-06T19:14:14;24.10;;;22.37;;
40304;SDS011;26010;52.418;20.728;2022-07-06T19:24:15;19.60;;;18.17;;
40304;SDS011;26010;52.418;20.728;2022-07-06T19:34:15;20.33;;;19.03;;
40304;SDS011;26010;52.418;20.728;2022-07-06T19:44:16;19.67;;;18.20;;
40304;SDS011;26010;52.418;20.728;2022-07-06T19:54:17;19.90;;;18.13;;
40304;SDS011;26010;52.418;20.728;2022-07-06T20:04:18;21.50;;;19.80;;
40304;SDS011;26010;52.418;20.728;2022-07-06T20:14:19;26.67;;;24.37;;
40304;SDS011;26010;52.418;20.728;2022-07-06T20:24:19;22.97;;;21.43;;
40304;SDS011;26010;52.418;20.728;2022-07-06T20:34:20;20.27;;;18.77;;
40304;SDS011;26010;52.418;20.728;2022-07-06T20:44:21;26.53;;;24.77;;
40304;SDS011;26010;52.418;20.728;2022-07-06T20:54:24;17.17;;;15.77;;
40304;SDS011;26010;52.418;20.728;2022-07-06T21:04:25;20.43;;;18.63;;
40304;SDS011;26010;52.418;20.728;2022-07-06T21:14:26;10.57;;;9.30;;
40304;SDS011;26010;52.418;20.728;2022-07-06T21:24:27;10.53;;;9.70;;
40304;SDS011;26010;52.418;20.728;2022-07-06T21:34:28;9.27;;;8.37;;
40304;SDS011;26010;52.418;20.728;2022-07-06T21:44:30;10.63;;;9.63;;
40304;SDS011;26010;52.418;20.728;2022-07-06T21:54:32;10.27;;;9.33;;
40304;SDS011;26010;52.418;20.728;2022-07-06T22:04:33;10.43;;;9.43;;
40304;SDS011;26010;52.418;20.728;2022-07-06T22:14:44;9.13;;;8.33;;
40304;SDS011;26010;52.418;20.728;2022-07-06T22:24:44;10.07;;;9.37;;
40304;SDS011;26010;52.418;20.728;2022-07-06T22:34:45;8.67;;;8.07;;
40304;SDS011;26010;52.418;20.728;2022-07-06T22:44:46;8.97;;;8.27;;
40304;SDS011;26010;52.418;20.728;2022-07-06T22:54:46;9.73;;;8.73;;
40304;SDS011;26010;52.418;20.728;2022-07-06T23:04:47;9.33;;;8.50;;
40304;SDS011;26010;52.418;20.728;2022-07-06T23:14:47;8.20;;;7.47;;
40304;SDS011;26010;52.418;20.728;2022-07-06T23:24:48;8.70;;;7.80;;
40304;SDS011;26010;52.418;20.728;2022-07-06T23:34:49;7.67;;;6.97;;
40304;SDS011;26010;52.418;20.728;2022-07-06T23:44:51;9.80;;;8.93;;
40304;SDS011;26010;52.418;20.728;2022-07-06T23:54:51;8.10;;;7.43;;
